KANQ/ANQ METAR and TAF weather

Enter ICAO airport designator
Station Type Date Time Source
KANQ METAR 2018/04/26 14:55 UTC NOAA

KANQ 261455Z AUTO 00000KT 4SM BR BKN006 07/05 A2996 RMK AO2 TSNO


Station Type Date Time Source
KANQ Decoded METAR 2018/04/26 14:55 UTC NOAA

Station name not available
Apr 26, 2018 - 10:55 AM EDT / 2018.04.26 1455 UTC
Wind: Calm:0
Visibility: 4 mile(s):0
Sky conditions: mostly cloudy
Weather: mist
Temperature: 44 F (7 C)
Dew Point: 41 F (5 C)
Relative Humidity: 87%
Pressure (altimeter): 29.96 in. Hg (1014 hPa)
ob: KANQ 261455Z AUTO 00000KT 4SM BR BKN006 07/05 A2996 RMK AO2 TSNO
cycle: 15

Station Type Date Time Source
KANQ TAF UTC NOAA

Error!


Example: see airport list